createdAt,value
2023-02-22T00:01:36.018Z,70.71
2023-02-22T00:04:05.212Z,70.97
2023-02-22T00:06:32.456Z,70.62
2023-02-22T00:08:59.988Z,71.03
2023-02-22T00:11:26.910Z,71.51
2023-02-22T00:13:57.288Z,70.95
2023-02-22T00:16:25.943Z,71.22
2023-02-22T00:18:53.487Z,71.27
2023-02-22T00:21:21.286Z,71.08
2023-02-22T00:23:49.317Z,71.40
2023-02-22T00:26:21.844Z,71.55
2023-02-22T00:28:51.465Z,71.98
2023-02-22T00:31:18.807Z,72.34
2023-02-22T00:33:45.915Z,72.83
2023-02-22T00:36:14.468Z,72.77
2023-02-22T00:38:41.971Z,72.52
2023-02-22T00:41:09.258Z,72.43
2023-02-22T00:43:36.551Z,72.83
2023-02-22T00:46:04.011Z,72.51
2023-02-22T00:48:31.152Z,72.99
2023-02-22T00:50:57.987Z,72.24
2023-02-22T00:53:25.699Z,72.51
2023-02-22T00:55:52.951Z,72.56
2023-02-22T00:58:20.262Z,72.78
2023-02-22T01:00:47.592Z,73.35
2023-02-22T01:03:19.182Z,73.81
2023-02-22T01:05:46.919Z,73.80
2023-02-22T01:08:16.354Z,73.80
2023-02-22T01:10:44.094Z,73.99
2023-02-22T01:13:13.021Z,74.02
2023-02-22T01:15:42.780Z,73.66
2023-02-22T01:18:10.266Z,73.38
2023-02-22T01:20:37.453Z,73.84
2023-02-22T01:23:07.099Z,73.79
2023-02-22T01:25:36.170Z,74.03
2023-02-22T01:28:05.140Z,73.93
2023-02-22T01:30:34.699Z,73.81
2023-02-22T01:33:03.855Z,73.96
2023-02-22T01:35:33.700Z,74.20
2023-02-22T01:38:00.618Z,74.88
2023-02-22T01:40:31.232Z,74.96
2023-02-22T01:43:01.548Z,75.50
2023-02-22T01:45:32.830Z,75.36
2023-02-22T01:48:36.747Z,75.18
2023-02-22T01:51:13.804Z,75.00
2023-02-22T01:53:49.890Z,75.11
2023-02-22T01:56:18.595Z,75.18
2023-02-22T01:58:51.049Z,74.96
2023-02-22T02:01:23.076Z,74.97
2023-02-22T02:03:50.909Z,75.54
2023-02-22T02:06:19.755Z,75.90
2023-02-22T02:09:10.891Z,75.84
2023-02-22T02:11:40.502Z,76.54
2023-02-22T02:14:09.324Z,76.79
2023-02-22T02:16:45.784Z,76.85
2023-02-22T02:19:25.743Z,77.10
2023-02-22T02:22:42.617Z,77.60
2023-02-22T02:25:18.150Z,77.87
2023-02-22T02:28:03.788Z,77.35
2023-02-22T02:30:58.656Z,76.92
2023-02-22T02:33:31.354Z,77.06
2023-02-22T02:36:12.070Z,77.08
2023-02-22T02:38:51.186Z,76.73
2023-02-22T02:41:31.050Z,76.58
2023-02-22T02:44:05.326Z,76.63
2023-02-22T02:46:51.185Z,76.63
2023-02-22T02:49:27.267Z,76.50
2023-02-22T02:51:56.178Z,76.34
2023-02-22T02:54:24.139Z,76.51
2023-02-22T02:56:52.538Z,76.70
2023-02-22T02:59:30.196Z,76.66
2023-02-22T03:02:13.225Z,76.59
2023-02-22T03:04:49.287Z,76.60
2023-02-22T03:07:32.426Z,76.66
2023-02-22T03:10:26.642Z,77.15
2023-02-22T03:13:08.636Z,77.49
2023-02-22T03:16:07.039Z,77.48
2023-02-22T03:19:04.850Z,77.55
2023-02-22T03:21:57.509Z,77.76
2023-02-22T03:24:42.525Z,77.75
2023-02-22T03:27:16.564Z,77.67
2023-02-22T03:29:51.211Z,77.61
2023-02-22T03:32:23.353Z,77.56
2023-02-22T03:35:03.370Z,77.51
2023-02-22T03:37:34.981Z,77.60
2023-02-22T03:40:14.411Z,77.94
2023-02-22T03:42:51.000Z,77.76
2023-02-22T03:45:24.426Z,77.41
2023-02-22T03:48:01.581Z,77.24
2023-02-22T03:50:35.838Z,77.27
2023-02-22T03:53:05.088Z,77.34
2023-02-22T03:55:35.217Z,77.37
2023-02-22T03:58:09.502Z,77.42
2023-02-22T04:00:36.967Z,77.56
2023-02-22T04:03:04.270Z,77.40
2023-02-22T04:05:31.062Z,77.45
2023-02-22T04:07:59.039Z,77.46
2023-02-22T04:10:27.121Z,77.28
2023-02-22T04:12:54.101Z,77.21
2023-02-22T04:15:23.890Z,77.31
2023-02-22T04:17:55.015Z,77.50
2023-02-22T04:20:25.566Z,77.22
2023-02-22T04:22:58.392Z,77.12
2023-02-22T04:25:25.270Z,77.18
2023-02-22T04:27:52.967Z,77.18
2023-02-22T04:30:26.204Z,76.95
2023-02-22T04:32:53.211Z,76.73
2023-02-22T04:35:21.691Z,76.90
2023-02-22T04:37:48.598Z,77.18
2023-02-22T04:40:17.221Z,77.43
2023-02-22T04:42:44.121Z,77.34
2023-02-22T04:45:11.432Z,77.82
2023-02-22T04:47:39.025Z,77.82
2023-02-22T04:50:07.445Z,78.04
2023-02-22T04:52:34.690Z,77.88
2023-02-22T04:55:01.631Z,77.81
2023-02-22T04:57:28.599Z,78.04
2023-02-22T04:59:55.839Z,78.08
2023-02-22T05:02:23.741Z,78.76
2023-02-22T05:04:50.866Z,79.85
2023-02-22T05:07:18.039Z,79.48
2023-02-22T05:09:44.790Z,78.97
2023-02-22T05:12:11.650Z,78.34
2023-02-22T05:14:38.477Z,78.44
2023-02-22T05:17:05.321Z,78.95
2023-02-22T05:19:32.094Z,79.55
2023-02-22T05:21:58.955Z,79.81
2023-02-22T05:24:25.732Z,80.19
2023-02-22T05:26:53.400Z,80.05
2023-02-22T05:29:20.874Z,80.12
2023-02-22T05:31:47.804Z,80.14
2023-02-22T05:34:15.714Z,80.70
2023-02-22T05:36:42.728Z,80.43
2023-02-22T05:39:09.570Z,80.17
2023-02-22T05:41:36.385Z,79.60
2023-02-22T05:44:03.212Z,78.75
2023-02-22T05:46:30.415Z,78.65
2023-02-22T05:48:57.237Z,77.80
2023-02-22T05:51:24.036Z,76.72
2023-02-22T05:53:52.609Z,75.72
2023-02-22T05:56:24.541Z,74.91
2023-02-22T05:58:51.687Z,74.27
2023-02-22T06:01:18.688Z,73.70
2023-02-22T06:03:49.789Z,72.99
2023-02-22T06:06:17.595Z,72.47
2023-02-22T06:08:44.613Z,71.97
2023-02-22T06:11:11.828Z,71.55
2023-02-22T06:13:39.421Z,71.48
2023-02-22T06:16:07.093Z,70.29
2023-02-22T06:18:34.125Z,68.81
2023-02-22T06:21:02.171Z,67.46
2023-02-22T06:23:28.939Z,65.75
2023-02-22T06:25:55.815Z,64.66
2023-02-22T06:28:23.813Z,63.97
2023-02-22T06:30:50.739Z,62.55
2023-02-22T06:33:17.692Z,62.12
2023-02-22T06:35:45.340Z,61.96
2023-02-22T06:38:12.502Z,62.14
2023-02-22T06:40:39.326Z,62.01
2023-02-22T06:43:06.109Z,62.48
2023-02-22T06:45:32.978Z,62.83
2023-02-22T06:47:59.776Z,63.53
2023-02-22T06:50:30.692Z,63.31
2023-02-22T06:52:58.361Z,64.26
2023-02-22T06:55:28.057Z,63.34
2023-02-22T06:57:54.980Z,63.55
2023-02-22T07:00:27.326Z,63.95
2023-02-22T07:02:55.189Z,63.89
2023-02-22T07:05:23.324Z,63.83
2023-02-22T07:07:52.692Z,63.76
2023-02-22T07:10:26.751Z,64.10
2023-02-22T07:12:54.545Z,63.18
2023-02-22T07:15:24.139Z,63.38
2023-02-22T07:17:52.498Z,63.52
2023-02-22T07:20:20.777Z,63.41
2023-02-22T07:22:48.932Z,63.35
2023-02-22T07:25:15.726Z,62.73
2023-02-22T07:27:43.146Z,62.70
2023-02-22T07:30:30.855Z,62.30
2023-02-22T07:33:02.449Z,62.36
2023-02-22T07:35:39.010Z,61.65
2023-02-22T07:38:08.239Z,61.89
2023-02-22T07:40:36.939Z,61.75
2023-02-22T07:43:15.719Z,61.79
2023-02-22T07:45:42.791Z,61.44
2023-02-22T07:48:10.113Z,60.80
2023-02-22T07:50:37.030Z,61.12
2023-02-22T07:53:06.235Z,61.18
2023-02-22T07:55:34.033Z,60.84
2023-02-22T07:58:03.528Z,60.88
2023-02-22T08:00:44.091Z,60.65
2023-02-22T08:03:13.713Z,60.38
2023-02-22T08:05:42.678Z,59.88
2023-02-22T08:08:09.534Z,59.72
2023-02-22T08:10:36.962Z,59.67
2023-02-22T08:13:05.627Z,59.64
2023-02-22T08:15:35.449Z,59.67
2023-02-22T08:18:04.689Z,59.35
2023-02-22T08:20:32.040Z,59.08
2023-02-22T08:22:58.995Z,58.90
2023-02-22T08:25:28.937Z,59.29
2023-02-22T08:28:04.630Z,58.29
2023-02-22T08:30:33.250Z,57.97
2023-02-22T08:33:00.610Z,57.74
2023-02-22T08:35:27.736Z,58.17
2023-02-22T08:37:58.649Z,57.64
2023-02-22T08:40:31.226Z,56.68
2023-02-22T08:42:58.806Z,55.41
2023-02-22T08:45:25.563Z,55.77
2023-02-22T08:47:52.319Z,55.86
2023-02-22T08:50:22.853Z,55.49
2023-02-22T08:52:54.128Z,55.30
2023-02-22T08:55:25.790Z,54.67
2023-02-22T08:57:52.638Z,54.07
2023-02-22T09:00:21.067Z,54.27
2023-02-22T09:02:47.933Z,54.23
2023-02-22T09:05:17.065Z,53.92
2023-02-22T09:07:44.930Z,53.80
2023-02-22T09:10:17.310Z,52.56
2023-02-22T09:12:44.261Z,52.24
2023-02-22T09:15:12.223Z,51.47
2023-02-22T09:17:39.098Z,51.34
2023-02-22T09:20:07.782Z,51.49
2023-02-22T09:22:34.686Z,51.17
2023-02-22T09:25:11.444Z,50.52
2023-02-22T09:27:43.700Z,49.60
2023-02-22T09:30:32.470Z,49.88
2023-02-22T09:33:16.073Z,48.78
2023-02-22T09:35:47.429Z,48.37
2023-02-22T09:38:16.863Z,49.44
2023-02-22T09:40:49.488Z,49.10
2023-02-22T09:43:40.849Z,49.02
2023-02-22T09:46:13.760Z,48.52
2023-02-22T09:49:25.039Z,47.54
2023-02-22T09:52:03.900Z,47.85
2023-02-22T09:54:44.149Z,46.98
2023-02-22T09:57:30.906Z,47.74
2023-02-22T09:59:57.597Z,47.39
2023-02-22T10:02:31.531Z,47.27
2023-02-22T10:05:17.835Z,46.85
2023-02-22T10:07:53.041Z,45.13
2023-02-22T10:10:23.387Z,46.19
2023-02-22T10:13:14.834Z,44.91
2023-02-22T10:16:10.904Z,45.35
2023-02-22T10:19:21.438Z,45.54
2023-02-22T10:22:12.979Z,44.45
2023-02-22T10:25:13.014Z,43.58
2023-02-22T10:27:45.106Z,43.53
2023-02-22T10:30:32.643Z,43.06
2023-02-22T10:33:17.431Z,42.70
2023-02-22T10:35:46.942Z,43.17
2023-02-22T10:38:32.660Z,43.82
2023-02-22T10:41:33.325Z,42.95
2023-02-22T10:44:02.938Z,42.18
2023-02-22T10:46:32.054Z,43.10
2023-02-22T10:49:04.705Z,42.56
2023-02-22T10:51:33.640Z,42.61
2023-02-22T10:54:15.826Z,42.58
2023-02-22T10:56:52.341Z,41.90
2023-02-22T10:59:31.698Z,41.78
2023-02-22T11:01:59.567Z,41.54
2023-02-22T11:04:26.473Z,41.88
2023-02-22T11:06:59.263Z,41.44
2023-02-22T11:09:26.090Z,41.59
2023-02-22T11:12:10.862Z,40.81
2023-02-22T11:14:39.105Z,40.78
2023-02-22T11:17:13.103Z,40.38
2023-02-22T11:19:47.366Z,40.39
2023-02-22T11:22:25.575Z,40.39
2023-02-22T11:25:02.719Z,39.67
2023-02-22T11:27:32.490Z,39.43
2023-02-22T11:30:21.908Z,39.41
2023-02-22T11:33:03.660Z,39.01
2023-02-22T11:35:39.523Z,39.33
2023-02-22T11:38:16.311Z,38.37
2023-02-22T11:40:44.388Z,37.77
2023-02-22T11:43:19.346Z,38.64
2023-02-22T11:46:06.212Z,38.69
2023-02-22T11:48:39.108Z,37.94
2023-02-22T11:51:14.305Z,37.23
2023-02-22T11:54:02.271Z,37.37
2023-02-22T11:56:40.299Z,36.53
2023-02-22T11:59:18.959Z,36.89
2023-02-22T12:01:54.587Z,37.24
2023-02-22T12:04:46.072Z,36.70
2023-02-22T12:07:17.698Z,36.53
2023-02-22T12:10:05.531Z,36.16
2023-02-22T12:12:42.967Z,36.22
2023-02-22T12:15:29.310Z,36.13
2023-02-22T12:18:13.235Z,35.60
2023-02-22T12:20:46.308Z,35.95
2023-02-22T12:23:46.568Z,35.65
2023-02-22T12:26:20.791Z,35.72
2023-02-22T12:28:59.334Z,35.55
2023-02-22T12:31:47.769Z,35.53
2023-02-22T12:34:21.922Z,35.72
2023-02-22T12:36:53.500Z,36.54
2023-02-22T12:39:35.972Z,35.56
2023-02-22T12:42:14.221Z,35.90
2023-02-22T12:44:45.226Z,35.63
2023-02-22T12:47:19.897Z,34.99
2023-02-22T12:50:02.027Z,35.50
2023-02-22T12:52:49.532Z,35.05
2023-02-22T12:55:29.075Z,34.87
2023-02-22T12:58:14.475Z,34.67
2023-02-22T13:01:13.601Z,34.66
2023-02-22T13:03:42.967Z,34.57
2023-02-22T13:06:18.986Z,34.91
2023-02-22T13:09:07.173Z,34.55
2023-02-22T13:11:58.127Z,34.51
2023-02-22T13:14:59.232Z,33.68
2023-02-22T13:17:51.955Z,33.89
2023-02-22T13:20:21.650Z,34.08
2023-02-22T13:22:58.868Z,33.77
2023-02-22T13:25:41.265Z,33.79
2023-02-22T13:28:33.391Z,33.85
2023-02-22T13:31:15.590Z,33.28
2023-02-22T13:34:03.156Z,33.73
2023-02-22T13:36:38.153Z,33.86
2023-02-22T13:39:07.589Z,33.34
2023-02-22T13:41:51.905Z,33.88
2023-02-22T13:44:21.612Z,33.57
2023-02-22T13:46:48.430Z,33.18
2023-02-22T13:49:28.274Z,32.44
2023-02-22T13:52:06.236Z,31.90
2023-02-22T13:54:42.859Z,32.09
2023-02-22T13:57:26.528Z,31.76
2023-02-22T14:00:16.568Z,31.21
2023-02-22T14:03:02.274Z,31.50
2023-02-22T14:05:41.729Z,31.17
2023-02-22T14:08:28.981Z,31.60
2023-02-22T14:11:06.033Z,31.45
2023-02-22T14:13:57.129Z,31.57
2023-02-22T14:16:30.694Z,31.60
2023-02-22T14:19:02.775Z,30.54
2023-02-22T14:21:29.648Z,30.67
2023-02-22T14:24:06.124Z,30.40
2023-02-22T14:26:36.491Z,30.71
2023-02-22T14:29:08.971Z,29.90
2023-02-22T14:31:43.413Z,29.32
2023-02-22T14:34:11.784Z,28.13
2023-02-22T14:37:01.119Z,28.09
2023-02-22T14:39:33.020Z,28.42
2023-02-22T14:42:06.790Z,28.01
2023-02-22T14:44:40.214Z,27.36
2023-02-22T14:47:16.512Z,27.20
2023-02-22T14:49:45.285Z,27.63
2023-02-22T14:52:24.104Z,27.99
2023-02-22T14:55:23.967Z,26.75
2023-02-22T14:58:18.810Z,27.26
2023-02-22T15:00:48.477Z,27.00
2023-02-22T15:03:38.432Z,27.37
2023-02-22T15:06:16.486Z,27.23
2023-02-22T15:08:48.813Z,27.24
2023-02-22T15:11:31.129Z,28.57
2023-02-22T15:14:00.604Z,28.59
2023-02-22T15:16:31.773Z,28.71
2023-02-22T15:19:00.947Z,28.17
2023-02-22T15:21:30.105Z,28.18
2023-02-22T15:24:00.713Z,27.76
2023-02-22T15:26:51.899Z,28.32
2023-02-22T15:29:35.121Z,28.40
2023-02-22T15:32:02.253Z,28.75
2023-02-22T15:34:31.976Z,29.35
2023-02-22T15:37:20.108Z,29.44
2023-02-22T15:39:46.973Z,29.95
2023-02-22T15:42:20.982Z,29.76
2023-02-22T15:44:53.858Z,30.07
2023-02-22T15:47:27.966Z,30.55
2023-02-22T15:50:16.835Z,31.38
2023-02-22T15:52:54.179Z,32.22
2023-02-22T15:55:26.034Z,33.73
2023-02-22T15:57:53.842Z,34.01
2023-02-22T16:00:36.138Z,35.11
2023-02-22T16:03:11.192Z,36.44
2023-02-22T16:05:46.802Z,37.35
2023-02-22T16:08:18.798Z,40.55
2023-02-22T16:11:02.350Z,41.46
2023-02-22T16:13:36.353Z,42.43
2023-02-22T16:16:05.820Z,43.45
2023-02-22T16:18:38.853Z,45.37
2023-02-22T16:21:13.113Z,45.60
2023-02-22T16:24:01.315Z,46.51
2023-02-22T16:26:35.115Z,47.28
2023-02-22T16:29:05.204Z,47.42
2023-02-22T16:31:37.671Z,48.41
2023-02-22T16:34:06.790Z,47.78
2023-02-22T16:36:47.771Z,48.59
2023-02-22T16:39:22.861Z,47.92
2023-02-22T16:41:51.343Z,47.60
2023-02-22T16:44:18.186Z,47.96
2023-02-22T16:46:45.089Z,48.02
2023-02-22T16:49:14.435Z,48.80
2023-02-22T16:51:47.339Z,48.71
2023-02-22T16:54:23.158Z,49.03
2023-02-22T16:56:50.027Z,48.82
2023-02-22T16:59:17.335Z,48.85
2023-02-22T17:01:45.456Z,49.06
2023-02-22T17:04:18.205Z,49.89
2023-02-22T17:06:45.056Z,50.00
2023-02-22T17:09:11.888Z,50.06
2023-02-22T17:11:39.383Z,51.25
2023-02-22T17:14:06.332Z,51.24
2023-02-22T17:16:33.084Z,52.24
2023-02-22T17:19:00.198Z,52.06
2023-02-22T17:21:26.971Z,51.82
2023-02-22T17:23:53.842Z,52.61
2023-02-22T17:26:20.606Z,52.98
2023-02-22T17:28:47.320Z,53.65
2023-02-22T17:31:21.892Z,53.35
2023-02-22T17:33:49.141Z,53.88
2023-02-22T17:36:16.298Z,54.18
2023-02-22T17:38:43.305Z,55.01
2023-02-22T17:41:10.058Z,55.17
2023-02-22T17:43:36.844Z,54.80
2023-02-22T17:46:08.273Z,55.27
2023-02-22T17:48:35.452Z,55.57
2023-02-22T17:51:08.074Z,55.53
2023-02-22T17:53:35.536Z,56.30
2023-02-22T17:56:10.764Z,56.90
2023-02-22T17:58:37.867Z,56.87
2023-02-22T18:01:04.950Z,57.61
2023-02-22T18:03:32.205Z,58.16
2023-02-22T18:06:01.050Z,57.56
2023-02-22T18:08:29.943Z,58.43
2023-02-22T18:10:57.172Z,59.05
2023-02-22T18:13:25.995Z,59.05
2023-02-22T18:15:53.449Z,59.06
2023-02-22T18:18:22.144Z,57.98
2023-02-22T18:20:51.601Z,58.32
2023-02-22T18:23:22.254Z,59.55
2023-02-22T18:26:09.079Z,59.52
2023-02-22T18:28:37.029Z,59.96
2023-02-22T18:31:15.228Z,60.45
2023-02-22T18:33:47.343Z,60.89
2023-02-22T18:36:15.583Z,61.69
2023-02-22T18:38:43.775Z,62.35
2023-02-22T18:41:16.268Z,61.70
2023-02-22T18:43:43.655Z,61.99
2023-02-22T18:46:19.936Z,61.90
2023-02-22T18:48:48.704Z,62.15
2023-02-22T18:51:19.809Z,62.41
2023-02-22T18:53:50.198Z,62.74
2023-02-22T18:56:22.574Z,62.38
2023-02-22T18:58:58.649Z,63.44
2023-02-22T19:01:25.999Z,63.24
2023-02-22T19:03:52.886Z,63.65
2023-02-22T19:06:22.716Z,63.57
2023-02-22T19:08:51.031Z,64.53
2023-02-22T19:11:23.038Z,64.43
2023-02-22T19:13:56.630Z,64.51
2023-02-22T19:16:26.565Z,64.38
2023-02-22T19:18:57.607Z,64.52
2023-02-22T19:21:27.387Z,64.88
2023-02-22T19:24:00.653Z,65.17
2023-02-22T19:26:29.442Z,65.53
2023-02-22T19:28:58.609Z,65.37
2023-02-22T19:31:31.568Z,65.45
2023-02-22T19:34:08.794Z,65.69
2023-02-22T19:36:39.428Z,65.87
2023-02-22T19:39:06.438Z,66.11
2023-02-22T19:41:33.296Z,66.21
2023-02-22T19:44:01.496Z,66.04
2023-02-22T19:46:28.863Z,66.13
2023-02-22T19:48:56.411Z,66.36
2023-02-22T19:51:28.852Z,66.76
2023-02-22T19:54:02.462Z,66.94
2023-02-22T19:56:31.239Z,67.43
2023-02-22T19:59:09.244Z,67.68
2023-02-22T20:01:37.111Z,67.36
2023-02-22T20:04:09.192Z,67.38
2023-02-22T20:06:40.349Z,67.54
2023-02-22T20:09:13.903Z,67.71
2023-02-22T20:11:40.684Z,67.86
2023-02-22T20:14:07.625Z,68.01
2023-02-22T20:16:35.759Z,67.75
2023-02-22T20:19:02.684Z,67.68
2023-02-22T20:21:31.819Z,67.89
2023-02-22T20:24:00.437Z,68.42
2023-02-22T20:26:31.618Z,68.17
2023-02-22T20:28:59.294Z,68.58
2023-02-22T20:31:26.917Z,69.02
2023-02-22T20:33:56.398Z,69.04
2023-02-22T20:36:24.205Z,69.38
2023-02-22T20:38:55.724Z,69.46
2023-02-22T20:41:28.937Z,69.68
2023-02-22T20:43:56.900Z,69.56
2023-02-22T20:46:26.152Z,69.55
2023-02-22T20:48:57.776Z,69.68
2023-02-22T20:51:26.116Z,69.68
2023-02-22T20:53:53.359Z,69.80
2023-02-22T20:56:22.750Z,70.14
2023-02-22T20:58:50.763Z,69.98
2023-02-22T21:01:20.646Z,70.25
2023-02-22T21:03:48.214Z,69.76
2023-02-22T21:06:16.748Z,69.92
2023-02-22T21:08:45.128Z,69.81
2023-02-22T21:11:13.479Z,69.49
2023-02-22T21:13:40.965Z,70.16
2023-02-22T21:16:10.346Z,70.46
2023-02-22T21:18:37.298Z,70.64
2023-02-22T21:21:10.459Z,70.57
2023-02-22T21:23:38.945Z,70.93
2023-02-22T21:26:06.104Z,70.68
2023-02-22T21:28:53.129Z,70.64
2023-02-22T21:31:24.964Z,70.65
2023-02-22T21:33:54.114Z,70.77
2023-02-22T21:36:25.410Z,70.58
2023-02-22T21:39:17.904Z,70.74
2023-02-22T21:41:50.605Z,71.26
2023-02-22T21:44:18.917Z,70.40
2023-02-22T21:46:48.786Z,71.80
2023-02-22T21:49:16.181Z,71.59
2023-02-22T21:51:44.740Z,71.39
2023-02-22T21:54:12.301Z,71.21
2023-02-22T21:56:42.458Z,71.54
2023-02-22T21:59:22.552Z,71.48
2023-02-22T22:01:57.725Z,71.40
2023-02-22T22:04:29.794Z,71.72
2023-02-22T22:06:59.353Z,71.80
2023-02-22T22:09:29.182Z,72.14
2023-02-22T22:12:00.794Z,72.20
2023-02-22T22:14:28.190Z,72.73
2023-02-22T22:16:58.735Z,72.70
2023-02-22T22:19:27.312Z,72.47
2023-02-22T22:21:54.489Z,72.81
2023-02-22T22:24:23.146Z,72.63
2023-02-22T22:26:54.702Z,72.86
2023-02-22T22:29:27.074Z,73.21
2023-02-22T22:31:54.601Z,73.25
2023-02-22T22:34:24.406Z,73.97
2023-02-22T22:36:51.499Z,73.35
2023-02-22T22:39:20.931Z,73.56
2023-02-22T22:41:48.285Z,73.41
2023-02-22T22:44:16.458Z,74.18
2023-02-22T22:46:49.101Z,73.80
2023-02-22T22:49:16.550Z,74.38
2023-02-22T22:51:43.366Z,74.77
2023-02-22T22:54:10.694Z,74.68
2023-02-22T22:56:38.696Z,74.44
2023-02-22T22:59:07.726Z,74.50
2023-02-22T23:01:39.227Z,74.67
2023-02-22T23:04:13.694Z,74.80
2023-02-22T23:06:50.552Z,74.79
2023-02-22T23:09:19.745Z,74.92
2023-02-22T23:11:50.718Z,74.76
2023-02-22T23:14:32.973Z,74.64
2023-02-22T23:17:03.701Z,74.91
2023-02-22T23:19:32.982Z,75.26
2023-02-22T23:21:59.951Z,74.88
2023-02-22T23:24:27.567Z,75.32
2023-02-22T23:26:59.995Z,75.37
2023-02-22T23:29:30.033Z,75.54
2023-02-22T23:31:56.867Z,75.89
2023-02-22T23:34:23.689Z,75.76
2023-02-22T23:36:54.277Z,75.75
2023-02-22T23:39:22.527Z,75.82
2023-02-22T23:41:59.243Z,75.78
2023-02-22T23:44:28.048Z,76.09
2023-02-22T23:46:56.022Z,76.41
2023-02-22T23:49:27.355Z,76.98
2023-02-22T23:51:54.470Z,76.99
2023-02-22T23:54:24.506Z,76.93
2023-02-22T23:56:57.711Z,77.02
2023-02-22T23:59:26.829Z,76.94
